Česky Dansk Deutsch English Español Suomi Français Magyar Italiano Nederlands norsk Polski Português svenska Türkçe

 

Het Weer

Oseberg (Noorwegen)

02:50, 23 Agosto 2016 (GMT)

NWNNE
WE
SWSSE
Home            
Oseberg Torp Rygge Skien-Geiteryggen Oslo / Fornebu Notodden Oslo / Gardermoen Trollhattan Private Satenas Dagali Karlstad Karlstad Flygplats Kristiansand / Kjevik Goteborg / Save Fagernes Leirin Sindal Flyveplads Goteborg / Landvetter Skovde Flygplats Aalborg Lista Flyplass Orebro Private Voss-Bo Thisted Lufthavn

Om een weerknop op uw website of weblog te plaatsen, copieer onderstaande code en plak die in uw pagina. In het eerste vakje staat HTML-code, in het tweede vakje UBB-code.


Add to Google

Details

Wind speed:1 bf, 1 kn, 0.5 m/s, 1.2 miles/h, 1.9 km/h
Wind direction:S, 170°
Visibilidad:Mayor de 10000 m, 10 km, 32800 ft, 6.2 miles
Clouds:Nubosidad discontinua at 1000 ft, 305 m
Temperatura:15°C, 59°F
Punto de rocío:13°C, 55°F
Presión atmosférica :1021 hPa, 765.8 mmHg, 30.15 inHg, 1.008 atm
Humedad relativa:87.8 %
METAR:ENOA 230250Z 17001KT 9999 BKN010 15/13 Q1021 WS/

Snelkoppelingen

Actuele weersinformatie van de hele wereld. Voeg locaties toe met het plus (+) symbool. Deze snelkoppelingen kunnen worden toegevoegd aan Google.

Lid van de Technetium groep

website free tracking
StatCounter NetStat W3C Validator

27-09-2022 04:47:28
astro.technetium.be money.technetium.be phote.technetium.be tafeltennistafel.technetium.be www.ligfiets.net